Time;durP1;ratioP1;P1;durP2;ratioP2;P2;SDS_P1;SDS_P2;PMS_P1;PMS_P2;Temp;Humidity;BMP_temperature;BMP_pressure;BME280_temperature;BME280_humidity;BME280_pressure;Samples;Min_cycle;Max_cycle;Signal;HPM_P1;HPM_P2
2023/02/09 00:01:57;;;;;;;92.40;33.22;;;-0.50;99.90;;;;;;5005854;28;20050;-77
2023/02/09 00:04:23;;;;;;;83.63;31.83;;;-0.50;99.90;;;;;;5004537;28;20026;-77
2023/02/09 00:06:49;;;;;;;87.22;33.63;;;-0.50;99.90;;;;;;5004922;28;20132;-75
2023/02/09 00:09:15;;;;;;;91.13;34.63;;;-0.60;99.90;;;;;;5018002;28;20030;-74
2023/02/09 00:14:28;;;;;;;95.82;34.63;;;-0.60;99.90;;;;;;4986901;28;20037;-76
2023/02/09 00:16:54;;;;;;;93.65;34.42;;;-0.50;99.90;;;;;;5001598;28;20066;-77
2023/02/09 00:19:20;;;;;;;89.45;34.03;;;-0.40;99.90;;;;;;4985650;28;20031;-76
2023/02/09 00:21:46;;;;;;;90.97;34.53;;;-0.60;99.90;;;;;;4986447;28;20042;-76
2023/02/09 00:24:13;;;;;;;87.93;34.00;;;-0.60;99.90;;;;;;5001598;28;20023;-75
2023/02/09 00:26:40;;;;;;;88.50;33.55;;;-0.70;99.90;;;;;;5001303;28;20031;-75
2023/02/09 00:29:06;;;;;;;83.18;33.85;;;-0.70;99.90;;;;;;5000753;28;20023;-77
2023/02/09 00:31:33;;;;;;;94.10;35.50;;;-0.70;99.90;;;;;;4986308;28;20050;-76
2023/02/09 00:33:59;;;;;;;91.20;33.78;;;-0.70;99.90;;;;;;5006560;28;20085;-78
2023/02/09 00:36:25;;;;;;;86.30;33.70;;;-0.60;99.90;;;;;;5004700;28;20033;-76
2023/02/09 00:38:50;;;;;;;84.60;32.75;;;-0.60;99.90;;;;;;5001662;28;20034;-76
2023/02/09 00:41:16;;;;;;;92.07;34.30;;;-0.60;99.90;;;;;;4999255;28;20656;-75
2023/02/09 00:43:42;;;;;;;87.70;32.63;;;-0.60;99.90;;;;;;4993637;28;20033;-75
2023/02/09 00:46:08;;;;;;;86.95;33.50;;;-0.60;99.90;;;;;;4994736;28;20031;-76
2023/02/09 00:48:34;;;;;;;92.63;33.22;;;-0.60;99.90;;;;;;4992200;28;20031;-75
2023/02/09 00:51:00;;;;;;;82.32;32.88;;;-0.60;99.90;;;;;;5000974;28;20034;-76
2023/02/09 00:53:26;;;;;;;88.28;33.90;;;-0.60;99.90;;;;;;4993591;28;20199;-77
2023/02/09 00:55:52;;;;;;;93.10;34.22;;;-0.60;99.90;;;;;;4992475;28;20081;-75
2023/02/09 00:58:19;;;;;;;93.53;33.00;;;-0.70;99.90;;;;;;4993627;28;20487;-74
2023/02/09 01:00:45;;;;;;;89.70;32.95;;;-0.70;99.90;;;;;;4988854;28;20030;-75
2023/02/09 01:03:10;;;;;;;86.07;33.55;;;-0.70;99.90;;;;;;4993480;28;20042;-74
2023/02/09 01:05:40;;;;;;;93.28;35.35;;;-0.70;99.90;;;;;;4991186;28;20027;-75
2023/02/09 01:08:05;;;;;;;89.38;33.35;;;-0.70;99.90;;;;;;4992516;28;20031;-76
2023/02/09 01:10:32;;;;;;;80.15;31.15;;;-0.80;99.90;;;;;;4995564;28;20053;-77
2023/02/09 01:12:57;;;;;;;83.13;31.33;;;-0.80;99.90;;;;;;4996228;28;20026;-77
2023/02/09 01:15:23;;;;;;;80.35;30.83;;;-0.80;99.90;;;;;;4993558;28;20077;-76
2023/02/09 01:17:49;;;;;;;76.45;31.10;;;-0.80;99.90;;;;;;4992819;28;20034;-75
2023/02/09 01:20:14;;;;;;;78.32;30.50;;;-0.80;99.90;;;;;;4991454;28;20038;-75
2023/02/09 01:22:40;;;;;;;86.28;30.40;;;-0.80;99.90;;;;;;4991985;28;20046;-75
2023/02/09 01:25:07;;;;;;;67.90;27.27;;;-0.90;99.90;;;;;;4991798;28;20031;-75
2023/02/09 01:27:32;;;;;;;84.43;30.40;;;-0.90;99.90;;;;;;4993150;28;20027;-78
2023/02/09 01:29:58;;;;;;;77.88;30.25;;;-0.90;99.90;;;;;;4991151;28;20110;-76
2023/02/09 01:32:24;;;;;;;76.63;29.83;;;-0.90;99.90;;;;;;4992732;28;20057;-75
2023/02/09 01:34:52;;;;;;;75.57;30.63;;;-0.90;99.90;;;;;;4993467;28;20033;-75
2023/02/09 01:37:17;;;;;;;74.22;28.15;;;-1.00;99.90;;;;;;4992449;28;20035;-74
2023/02/09 01:39:43;;;;;;;80.75;28.90;;;-1.00;99.90;;;;;;4992327;28;20033;-78
2023/02/09 01:42:17;;;;;;;77.93;27.83;;;-1.00;99.90;;;;;;4992946;28;20034;-75
2023/02/09 01:44:43;;;;;;;73.57;29.17;;;-1.00;99.90;;;;;;4994232;28;20637;-75
2023/02/09 01:47:17;;;;;;;75.32;29.88;;;-1.00;99.90;;;;;;4990946;28;20029;-76
2023/02/09 01:49:46;;;;;;;75.70;29.70;;;-1.10;99.90;;;;;;4996135;28;20049;-77
2023/02/09 01:52:17;;;;;;;78.13;28.30;;;-1.10;99.90;;;;;;4990475;28;20034;-76
2023/02/09 01:54:50;;;;;;;67.72;27.08;;;-1.10;99.90;;;;;;4994092;28;20023;-76
2023/02/09 01:57:20;;;;;;;74.82;26.58;;;-1.10;99.90;;;;;;4993786;28;20042;-76
2023/02/09 01:59:50;;;;;;;72.07;29.25;;;-1.10;99.90;;;;;;4990724;28;20026;-75
2023/02/09 02:02:16;;;;;;;79.80;28.02;;;-1.10;99.90;;;;;;4993794;28;20026;-77
2023/02/09 02:04:43;;;;;;;74.18;27.02;;;-1.20;99.90;;;;;;4991795;28;20029;-76
2023/02/09 02:07:36;;;;;;;75.82;27.58;;;-1.20;99.90;;;;;;4994419;28;20038;-74
2023/02/09 02:10:03;;;;;;;73.13;28.70;;;-1.30;99.90;;;;;;4990431;28;20069;-77
2023/02/09 02:12:29;;;;;;;77.75;29.13;;;-1.30;99.90;;;;;;4993743;28;20038;-77
2023/02/09 02:14:55;;;;;;;70.95;27.63;;;-1.30;99.90;;;;;;4993360;28;20053;-77
2023/02/09 02:17:48;;;;;;;67.07;27.35;;;-1.30;99.90;;;;;;4994857;28;20034;-75
2023/02/09 02:20:36;;;;;;;76.32;28.25;;;-1.30;99.90;;;;;;4991772;28;20035;-76
2023/02/09 02:23:15;;;;;;;71.72;26.60;;;-1.30;99.90;;;;;;4989508;28;20050;-76
2023/02/09 02:25:55;;;;;;;72.53;28.85;;;-1.30;99.90;;;;;;4992306;28;20027;-76
2023/02/09 02:28:35;;;;;;;73.10;25.85;;;-1.40;99.90;;;;;;5015491;28;20450;-78
2023/02/09 02:31:38;;;;;;;70.25;27.65;;;-1.40;99.90;;;;;;4995890;28;20549;-77
2023/02/09 02:34:31;;;;;;;79.50;28.50;;;-1.40;99.90;;;;;;4996755;28;20038;-75
2023/02/09 02:37:12;;;;;;;69.07;27.27;;;-1.40;99.90;;;;;;4993090;28;20033;-77
2023/02/09 02:39:44;;;;;;;83.25;29.83;;;-1.40;99.90;;;;;;4999179;28;20034;-76
2023/02/09 02:45:42;;;;;;;75.50;28.10;;;-1.40;99.90;;;;;;5003048;28;20038;-75
2023/02/09 02:48:33;;;;;;;80.20;29.50;;;-1.40;99.90;;;;;;5001352;28;20046;-76
2023/02/09 02:51:06;;;;;;;77.03;28.45;;;-1.40;99.90;;;;;;5003455;28;20073;-76
2023/02/09 02:53:35;;;;;;;73.25;28.90;;;-1.40;99.90;;;;;;5003006;28;20046;-75
2023/02/09 02:56:17;;;;;;;83.45;27.95;;;-1.40;99.90;;;;;;5017044;28;20049;-76
2023/02/09 02:58:46;;;;;;;74.63;27.25;;;-1.40;99.90;;;;;;5015747;28;20500;-77
2023/02/09 03:01:16;;;;;;;75.60;27.27;;;-1.40;99.90;;;;;;4997955;28;20399;-76
2023/02/09 03:03:43;;;;;;;73.13;26.85;;;-1.50;99.90;;;;;;5004328;28;20026;-75
2023/02/09 03:06:11;;;;;;;71.35;26.88;;;-1.50;99.90;;;;;;5006075;28;20030;-75
2023/02/09 03:08:47;;;;;;;72.43;28.05;;;-1.50;99.90;;;;;;5022913;28;20030;-77
2023/02/09 03:11:13;;;;;;;65.82;26.27;;;-1.50;99.90;;;;;;5022602;28;20073;-75
2023/02/09 03:14:09;;;;;;;72.78;26.42;;;-1.50;99.90;;;;;;5021924;28;20018;-75
2023/02/09 03:16:45;;;;;;;65.78;24.20;;;-1.60;99.90;;;;;;5001042;28;20038;-77
2023/02/09 03:19:35;;;;;;;71.50;26.13;;;-1.60;99.90;;;;;;4988057;28;20038;-75
2023/02/09 03:22:12;;;;;;;75.43;25.65;;;-1.60;99.90;;;;;;4986506;28;20038;-75
2023/02/09 03:24:59;;;;;;;70.55;27.92;;;-1.60;99.90;;;;;;4995456;28;20483;-76
2023/02/09 03:27:42;;;;;;;70.60;26.08;;;-1.60;99.90;;;;;;5006295;28;20036;-75
2023/02/09 03:30:10;;;;;;;70.53;26.58;;;-1.60;99.90;;;;;;5007257;28;20038;-76
2023/02/09 03:32:39;;;;;;;63.58;26.67;;;-1.60;99.90;;;;;;4999271;28;20293;-75
2023/02/09 03:35:07;;;;;;;70.93;26.83;;;-1.60;99.90;;;;;;4999030;28;20040;-75
2023/02/09 03:37:32;;;;;;;75.97;27.85;;;-1.60;99.90;;;;;;5002901;28;20023;-75
2023/02/09 03:39:58;;;;;;;67.15;25.05;;;-1.70;99.90;;;;;;4995178;28;20045;-76
2023/02/09 03:42:24;;;;;;;68.80;26.52;;;-1.70;99.90;;;;;;4995006;28;20023;-76
2023/02/09 03:44:49;;;;;;;62.42;25.02;;;-1.70;99.90;;;;;;5000261;28;20069;-76
2023/02/09 03:47:15;;;;;;;65.25;25.30;;;-1.70;99.90;;;;;;4993324;28;20081;-77
2023/02/09 03:49:41;;;;;;;72.20;26.75;;;-1.70;99.90;;;;;;4993456;28;20023;-77
2023/02/09 03:52:09;;;;;;;71.85;27.00;;;-1.70;99.90;;;;;;4994265;28;20068;-76
2023/02/09 03:54:35;;;;;;;66.97;26.80;;;-1.70;99.90;;;;;;4993601;28;20053;-77
2023/02/09 03:57:02;;;;;;;66.63;24.90;;;-1.70;99.90;;;;;;4993540;28;20055;-76
2023/02/09 03:59:28;;;;;;;58.17;23.45;;;-1.70;99.90;;;;;;4996257;28;20027;-77
2023/02/09 04:01:56;;;;;;;64.25;24.30;;;-1.70;99.90;;;;;;4993293;28;20054;-76
2023/02/09 04:04:22;;;;;;;60.72;23.25;;;-1.80;99.90;;;;;;4994936;28;20026;-77
2023/02/09 04:06:49;;;;;;;60.67;23.10;;;-1.80;99.90;;;;;;4996056;28;20073;-76
2023/02/09 04:09:15;;;;;;;62.88;23.17;;;-1.80;99.90;;;;;;4996025;28;20030;-75
2023/02/09 04:11:41;;;;;;;52.42;20.33;;;-1.80;99.90;;;;;;4991587;28;20039;-76
2023/02/09 04:14:10;;;;;;;56.15;21.40;;;-1.90;99.90;;;;;;4995138;28;20030;-77
2023/02/09 04:16:36;;;;;;;58.63;22.15;;;-1.90;99.90;;;;;;4994759;28;20865;-76
2023/02/09 04:19:02;;;;;;;56.50;21.77;;;-1.80;99.90;;;;;;4993724;28;20023;-75
2023/02/09 04:21:28;;;;;;;47.90;19.85;;;-1.80;99.90;;;;;;4997918;28;20022;-76
2023/02/09 04:23:55;;;;;;;49.38;20.38;;;-1.90;99.90;;;;;;4997478;28;20081;-77
2023/02/09 04:26:20;;;;;;;55.20;21.27;;;-1.80;99.90;;;;;;4995369;28;20420;-76
2023/02/09 04:28:46;;;;;;;48.10;19.73;;;-1.80;99.90;;;;;;4995210;28;20023;-76
2023/02/09 04:31:12;;;;;;;49.67;18.77;;;-1.80;99.90;;;;;;4994132;28;20038;-76
2023/02/09 04:33:37;;;;;;;50.58;20.02;;;-1.80;99.90;;;;;;4992828;28;20072;-76
2023/02/09 04:36:04;;;;;;;48.72;18.63;;;-1.80;99.90;;;;;;4994135;28;20037;-75
2023/02/09 04:38:30;;;;;;;50.25;18.80;;;-1.80;99.90;;;;;;4995311;28;20019;-75
2023/02/09 04:40:58;;;;;;;48.20;18.17;;;-1.80;99.90;;;;;;4992873;28;20034;-76
2023/02/09 04:43:24;;;;;;;44.83;17.60;;;-1.80;99.90;;;;;;4993797;28;20068;-76
2023/02/09 04:45:49;;;;;;;50.35;18.00;;;-1.80;99.90;;;;;;4993967;28;20055;-76
2023/02/09 04:48:17;;;;;;;46.92;18.45;;;-1.80;99.90;;;;;;4994950;28;20035;-75
2023/02/09 04:50:43;;;;;;;42.95;17.48;;;-1.90;99.90;;;;;;4996100;28;20058;-74
2023/02/09 04:53:09;;;;;;;45.90;18.52;;;-1.90;99.90;;;;;;4993192;28;20034;-75
2023/02/09 04:55:42;;;;;;;40.50;17.25;;;-1.90;99.90;;;;;;4995349;28;20045;-74
2023/02/09 05:00:57;;;;;;;43.42;16.77;;;-1.90;99.90;;;;;;4995750;28;20126;-75
2023/02/09 05:03:24;;;;;;;44.08;16.60;;;-1.90;99.90;;;;;;4992946;28;20054;-75
2023/02/09 05:05:56;;;;;;;36.72;14.85;;;-1.90;99.90;;;;;;4991234;28;20030;-75
2023/02/09 05:08:22;;;;;;;41.45;16.60;;;-1.90;99.90;;;;;;4994163;28;20026;-76
2023/02/09 05:10:52;;;;;;;47.92;16.80;;;-1.90;99.90;;;;;;4992870;28;20042;-74
2023/02/09 05:13:19;;;;;;;37.60;15.15;;;-1.90;99.90;;;;;;4993441;28;20031;-76
2023/02/09 05:15:45;;;;;;;38.30;15.38;;;-1.90;99.90;;;;;;4993103;28;20033;-75
2023/02/09 05:18:11;;;;;;;37.45;15.43;;;-1.90;99.90;;;;;;4994809;28;20027;-74
2023/02/09 05:20:37;;;;;;;37.08;15.32;;;-1.90;99.90;;;;;;4991724;28;20027;-74
2023/02/09 05:23:03;;;;;;;36.05;15.45;;;-1.90;99.90;;;;;;4995983;28;20048;-75
2023/02/09 05:25:29;;;;;;;36.45;14.18;;;-1.90;99.90;;;;;;4996590;28;20034;-75
2023/02/09 05:27:54;;;;;;;35.50;14.00;;;-1.90;99.90;;;;;;4995095;28;20406;-75
2023/02/09 05:30:20;;;;;;;32.70;14.02;;;-1.80;99.90;;;;;;4998495;28;20097;-75
2023/02/09 05:32:46;;;;;;;30.63;13.15;;;-1.80;99.90;;;;;;4993724;28;20037;-74
2023/02/09 05:35:11;;;;;;;32.92;12.95;;;-1.80;99.90;;;;;;4993395;28;20388;-74
2023/02/09 05:37:37;;;;;;;30.55;12.57;;;-1.70;99.90;;;;;;5000858;28;20057;-74
2023/02/09 05:40:03;;;;;;;29.70;12.32;;;-1.70;99.90;;;;;;5004984;28;20033;-75
2023/02/09 05:42:29;;;;;;;31.27;12.68;;;-1.60;99.90;;;;;;5020257;28;20034;-77
2023/02/09 05:44:55;;;;;;;32.42;12.63;;;-1.60;99.90;;;;;;5003658;28;20026;-76
2023/02/09 05:47:22;;;;;;;27.90;12.02;;;-1.60;99.90;;;;;;5019957;28;20038;-75
2023/02/09 05:49:47;;;;;;;32.85;13.43;;;-1.50;99.90;;;;;;5004587;28;20162;-75
2023/02/09 05:52:15;;;;;;;30.80;12.40;;;-1.60;99.90;;;;;;5019497;28;20046;-75
2023/02/09 05:54:41;;;;;;;30.23;11.65;;;-1.60;99.90;;;;;;5019805;28;20034;-75
2023/02/09 05:57:07;;;;;;;31.73;12.02;;;-1.60;99.90;;;;;;5019736;28;20057;-75
2023/02/09 05:59:33;;;;;;;25.45;11.35;;;-1.60;99.90;;;;;;5005197;28;20084;-75
2023/02/09 06:01:59;;;;;;;28.15;12.00;;;-1.60;99.90;;;;;;5004705;28;20093;-75
2023/02/09 06:04:25;;;;;;;27.50;10.63;;;-1.50;99.90;;;;;;5019841;28;20037;-77
2023/02/09 06:06:51;;;;;;;30.90;10.63;;;-1.50;99.90;;;;;;5004969;28;20062;-76
2023/02/09 06:09:17;;;;;;;30.48;10.82;;;-1.50;99.90;;;;;;5019231;28;20022;-74
2023/02/09 06:11:42;;;;;;;27.70;10.77;;;-1.50;99.90;;;;;;5004036;28;20050;-74
2023/02/09 06:14:09;;;;;;;29.67;11.18;;;-1.50;99.90;;;;;;5004743;28;20027;-74
2023/02/09 06:16:34;;;;;;;26.08;10.65;;;-1.50;99.90;;;;;;5003216;28;20430;-77
2023/02/09 06:19:00;;;;;;;28.33;11.55;;;-1.50;99.90;;;;;;5003189;28;20030;-74
2023/02/09 06:21:26;;;;;;;28.90;11.27;;;-1.50;99.90;;;;;;5003382;28;20101;-73
2023/02/09 06:23:51;;;;;;;31.10;11.50;;;-1.50;99.90;;;;;;5003268;28;20116;-73
2023/02/09 06:26:18;;;;;;;26.88;9.82;;;-1.50;99.90;;;;;;5002895;28;20037;-73
2023/02/09 06:28:44;;;;;;;27.85;11.40;;;-1.50;99.90;;;;;;5004319;28;20439;-73
2023/02/09 06:31:10;;;;;;;35.55;12.50;;;-1.50;99.90;;;;;;5002882;28;20049;-75
2023/02/09 06:33:36;;;;;;;26.60;10.10;;;-1.50;99.90;;;;;;5004055;28;20407;-74
2023/02/09 06:36:03;;;;;;;28.38;11.48;;;-1.50;99.90;;;;;;5001034;28;20038;-74
2023/02/09 06:38:30;;;;;;;30.73;11.48;;;-1.50;99.90;;;;;;5003461;28;20023;-74
2023/02/09 06:40:56;;;;;;;41.65;15.05;;;-1.50;99.90;;;;;;5004530;28;20032;-74
2023/02/09 06:43:22;;;;;;;39.40;14.70;;;-1.50;99.90;;;;;;5003878;28;20085;-74
2023/02/09 06:45:47;;;;;;;34.90;11.95;;;-1.50;99.90;;;;;;4999489;28;20033;-75
2023/02/09 06:48:13;;;;;;;33.17;12.95;;;-1.50;99.90;;;;;;5000316;28;20164;-76
2023/02/09 06:50:39;;;;;;;39.92;15.57;;;-1.50;99.90;;;;;;5000700;28;20043;-75
2023/02/09 06:53:06;;;;;;;31.85;14.52;;;-1.50;99.90;;;;;;4997738;28;20082;-76
2023/02/09 06:55:32;;;;;;;37.65;12.95;;;-1.40;99.90;;;;;;5003476;28;20439;-75
2023/02/09 06:57:57;;;;;;;28.30;11.75;;;-1.40;99.90;;;;;;5004262;28;20066;-75
2023/02/09 07:00:23;;;;;;;32.88;13.20;;;-1.40;99.90;;;;;;5003128;28;20042;-76
2023/02/09 07:02:49;;;;;;;36.22;11.48;;;-1.40;99.90;;;;;;4999760;28;20592;-76
2023/02/09 07:05:16;;;;;;;31.40;12.65;;;-1.40;99.90;;;;;;5004771;28;20061;-74
2023/02/09 07:07:43;;;;;;;31.80;12.02;;;-1.30;99.90;;;;;;5005502;28;20034;-76
2023/02/09 07:10:10;;;;;;;26.13;10.68;;;-1.40;99.90;;;;;;5005924;28;20027;-75
2023/02/09 07:12:36;;;;;;;25.02;10.45;;;-1.40;99.90;;;;;;5006917;28;20034;-75
2023/02/09 07:15:02;;;;;;;43.65;12.10;;;-1.30;99.90;;;;;;5006936;28;20023;-76
2023/02/09 07:17:29;;;;;;;28.92;11.75;;;-1.30;99.90;;;;;;5006137;28;20070;-75
2023/02/09 07:19:55;;;;;;;33.75;14.88;;;-1.30;99.90;;;;;;5005848;28;20038;-76
2023/02/09 07:22:21;;;;;;;32.58;13.73;;;-1.30;99.90;;;;;;5005157;28;20033;-76
2023/02/09 07:24:47;;;;;;;30.38;13.38;;;-1.30;99.90;;;;;;5006096;28;20126;-75
2023/02/09 07:27:13;;;;;;;32.45;13.82;;;-1.20;99.90;;;;;;5007336;28;20058;-74
2023/02/09 07:29:39;;;;;;;26.63;11.98;;;-1.20;99.90;;;;;;5004836;28;20499;-74
2023/02/09 07:32:05;;;;;;;38.15;16.90;;;-1.10;99.90;;;;;;5005745;28;20068;-75
2023/02/09 07:34:31;;;;;;;33.58;13.20;;;-1.10;99.90;;;;;;5005542;28;20053;-76
2023/02/09 07:36:57;;;;;;;35.45;12.93;;;-1.00;99.90;;;;;;5005285;28;20595;-75
2023/02/09 07:39:22;;;;;;;30.10;11.52;;;-1.00;99.90;;;;;;5005896;28;20037;-75
2023/02/09 07:41:48;;;;;;;32.78;12.77;;;-0.90;99.90;;;;;;5005026;28;20023;-75
2023/02/09 07:44:13;;;;;;;37.17;13.80;;;-0.90;99.90;;;;;;5007209;28;20033;-75
2023/02/09 07:46:39;;;;;;;29.52;13.18;;;-0.80;99.90;;;;;;5006498;28;20029;-74
2023/02/09 07:49:04;;;;;;;28.65;11.27;;;-0.80;99.90;;;;;;5005620;28;20034;-75
2023/02/09 07:51:30;;;;;;;31.90;12.68;;;-0.70;99.90;;;;;;5003530;28;20097;-75
2023/02/09 07:53:57;;;;;;;37.15;13.73;;;-0.60;99.90;;;;;;5002945;28;20077;-75
2023/02/09 07:56:23;;;;;;;35.55;12.77;;;-0.40;99.90;;;;;;5006137;28;20030;-75
2023/02/09 07:58:49;;;;;;;31.35;12.80;;;-0.40;99.90;;;;;;5006347;28;20480;-74
2023/02/09 08:01:16;;;;;;;26.50;10.65;;;-0.20;99.90;;;;;;5004481;28;20040;-76
2023/02/09 08:03:45;;;;;;;28.45;11.80;;;-0.10;99.90;;;;;;5004654;28;20022;-74
2023/02/09 08:06:24;;;;;;;30.05;12.27;;;0.00;99.90;;;;;;5002523;28;20041;-76
2023/02/09 08:08:51;;;;;;;29.65;11.88;;;0.20;99.90;;;;;;5004670;28;20033;-76
2023/02/09 08:11:22;;;;;;;22.20;9.45;;;0.40;99.90;;;;;;5006444;28;20047;-73
2023/02/09 08:13:49;;;;;;;31.20;12.35;;;0.50;99.90;;;;;;5005382;28;20100;-71
2023/02/09 08:16:18;;;;;;;35.08;12.70;;;0.60;99.90;;;;;;5002695;28;20414;-73
2023/02/09 08:19:09;;;;;;;34.33;12.55;;;0.80;99.90;;;;;;4999301;28;20088;-74
2023/02/09 08:21:39;;;;;;;29.58;11.98;;;0.90;99.90;;;;;;5003419;28;20034;-74
2023/02/09 08:24:06;;;;;;;27.23;11.38;;;1.20;99.90;;;;;;5001273;28;20072;-73
2023/02/09 08:26:32;;;;;;;33.83;11.48;;;1.40;99.90;;;;;;5005730;28;20068;-73
2023/02/09 08:28:58;;;;;;;29.13;11.90;;;1.50;99.90;;;;;;5002854;28;20030;-76
2023/02/09 08:31:23;;;;;;;26.88;11.80;;;1.70;99.90;;;;;;4994132;28;20058;-76
2023/02/09 08:33:50;;;;;;;31.23;12.02;;;1.80;99.90;;;;;;5005571;28;20025;-75
2023/02/09 08:36:17;;;;;;;28.48;12.60;;;2.00;99.90;;;;;;5003007;28;20428;-74
2023/02/09 08:38:44;;;;;;;25.25;10.93;;;2.10;99.90;;;;;;5004904;28;20026;-74
2023/02/09 08:41:11;;;;;;;30.77;11.60;;;2.30;99.90;;;;;;5000827;28;20060;-75
2023/02/09 08:43:37;;;;;;;29.55;12.65;;;2.40;99.90;;;;;;5004036;28;20081;-73
2023/02/09 08:46:06;;;;;;;29.30;11.95;;;2.60;99.90;;;;;;4986558;28;20027;-73
2023/02/09 08:48:34;;;;;;;28.55;12.40;;;2.70;99.90;;;;;;4995362;28;20060;-72
2023/02/09 08:50:59;;;;;;;33.75;12.75;;;2.70;99.90;;;;;;5005710;28;20069;-72
2023/02/09 08:53:26;;;;;;;32.75;12.40;;;2.70;99.90;;;;;;5005212;28;20022;-73
2023/02/09 08:55:52;;;;;;;23.42;10.82;;;2.70;99.90;;;;;;5000229;28;20027;-74
2023/02/09 08:58:17;;;;;;;30.63;12.32;;;2.70;99.90;;;;;;4999865;28;20633;-74
2023/02/09 09:00:43;;;;;;;28.58;12.07;;;2.80;99.90;;;;;;5003473;28;20549;-73
2023/02/09 09:03:09;;;;;;;28.75;11.85;;;2.90;99.90;;;;;;5020173;28;20027;-74
2023/02/09 09:05:35;;;;;;;28.75;11.95;;;3.00;99.90;;;;;;5005735;28;20432;-73
2023/02/09 09:08:01;;;;;;;29.48;12.57;;;3.10;99.90;;;;;;5004273;28;20094;-75
2023/02/09 09:10:27;;;;;;;37.22;11.70;;;3.20;99.90;;;;;;5005080;28;20106;-74
2023/02/09 09:12:53;;;;;;;32.38;12.80;;;3.30;99.90;;;;;;4998625;28;20077;-74
2023/02/09 09:15:18;;;;;;;29.55;11.57;;;3.40;99.90;;;;;;4996997;28;20691;-72
2023/02/09 09:17:44;;;;;;;27.55;12.38;;;3.50;99.90;;;;;;5003784;28;20533;-75
2023/02/09 09:20:10;;;;;;;28.80;12.45;;;3.60;99.90;;;;;;5004024;28;20034;-72
2023/02/09 09:22:38;;;;;;;26.05;11.30;;;3.60;99.90;;;;;;5004361;28;20405;-73
2023/02/09 09:25:05;;;;;;;29.58;12.32;;;3.50;99.90;;;;;;5005269;28;20018;-74
2023/02/09 09:27:39;;;;;;;27.73;11.70;;;3.50;99.90;;;;;;5003589;28;20034;-72
2023/02/09 09:30:06;;;;;;;32.63;13.05;;;3.50;99.90;;;;;;5004154;28;20133;-72
2023/02/09 09:32:32;;;;;;;29.25;11.65;;;3.50;99.90;;;;;;5001696;28;20111;-72
2023/02/09 09:34:58;;;;;;;31.83;12.80;;;3.40;99.90;;;;;;5005476;28;20034;-72
2023/02/09 09:37:25;;;;;;;33.90;12.48;;;3.40;99.90;;;;;;4998449;28;20045;-73
2023/02/09 09:39:51;;;;;;;31.75;12.38;;;3.40;99.90;;;;;;5004241;28;20113;-72
2023/02/09 09:42:40;;;;;;;30.17;13.25;;;3.50;99.90;;;;;;4999990;28;20042;-72
2023/02/09 09:45:12;;;;;;;32.25;13.07;;;3.60;99.90;;;;;;4999669;28;20030;-72
2023/02/09 09:47:39;;;;;;;37.47;12.68;;;3.80;99.90;;;;;;5001459;28;20145;-72
2023/02/09 09:50:13;;;;;;;29.40;11.43;;;3.90;99.90;;;;;;5004439;28;20026;-74
2023/02/09 09:52:43;;;;;;;29.60;10.98;;;3.90;99.90;;;;;;5002443;28;20030;-73
2023/02/09 09:55:18;;;;;;;30.65;12.85;;;3.90;99.90;;;;;;5002069;28;20029;-74
2023/02/09 09:57:44;;;;;;;34.13;12.73;;;4.00;99.90;;;;;;5005892;28;20046;-73
2023/02/09 10:00:18;;;;;;;39.25;13.32;;;4.10;99.90;;;;;;4992207;28;20023;-75
2023/02/09 10:02:44;;;;;;;37.88;12.25;;;4.20;99.90;;;;;;5001013;28;20031;-74
2023/02/09 10:05:09;;;;;;;29.85;11.88;;;4.20;99.90;;;;;;5004656;28;20124;-74
2023/02/09 10:07:37;;;;;;;30.75;13.13;;;4.50;99.90;;;;;;5000544;28;20026;-74
2023/02/09 10:10:27;;;;;;;33.10;12.25;;;4.70;99.90;;;;;;5004643;28;20022;-71
2023/02/09 10:12:54;;;;;;;30.92;12.18;;;4.90;99.90;;;;;;4999874;28;20051;-75
2023/02/09 10:15:33;;;;;;;28.67;11.98;;;5.00;99.90;;;;;;4993391;28;20080;-73
2023/02/09 10:17:59;;;;;;;27.98;11.57;;;5.10;99.90;;;;;;5003619;28;20030;-72
2023/02/09 10:21:03;;;;;;;29.67;12.90;;;5.00;99.90;;;;;;4995933;28;20035;-76
2023/02/09 10:23:38;;;;;;;31.55;11.98;;;5.00;99.90;;;;;;4995575;28;20081;-75
2023/02/09 10:26:29;;;;;;;30.85;13.00;;;5.00;99.90;;;;;;5003515;28;20027;-73
2023/02/09 10:29:07;;;;;;;26.67;12.00;;;5.00;99.90;;;;;;5005100;28;20031;-74
2023/02/09 10:31:39;;;;;;;26.85;12.52;;;5.10;99.90;;;;;;5000811;28;20066;-75
2023/02/09 10:34:07;;;;;;;23.83;10.68;;;5.10;99.90;;;;;;4997654;28;20047;-74
2023/02/09 10:36:38;;;;;;;21.48;9.77;;;5.20;99.90;;;;;;4999557;28;20038;-75
2023/02/09 10:39:16;;;;;;;27.23;10.75;;;5.20;99.90;;;;;;4999676;28;20069;-74
2023/02/09 10:41:45;;;;;;;27.40;11.43;;;5.20;99.90;;;;;;5004527;28;20026;-73
2023/02/09 10:44:27;;;;;;;21.05;8.88;;;5.20;99.90;;;;;;5003551;28;20027;-73
2023/02/09 10:47:19;;;;;;;25.63;12.38;;;5.30;99.90;;;;;;4998491;28;20031;-72
2023/02/09 10:50:14;;;;;;;30.02;12.80;;;5.40;99.90;;;;;;4997294;28;20470;-71
2023/02/09 10:53:17;;;;;;;28.80;12.23;;;5.50;99.90;;;;;;4999424;28;20049;-73
2023/02/09 10:55:44;;;;;;;27.80;11.93;;;5.50;99.90;;;;;;5000445;28;20030;-71
2023/02/09 10:58:10;;;;;;;27.30;12.63;;;5.60;99.90;;;;;;4992811;28;20058;-73
2023/02/09 11:00:54;;;;;;;25.67;11.98;;;5.70;99.90;;;;;;4998348;28;20022;-73
2023/02/09 11:03:24;;;;;;;32.80;12.38;;;5.90;99.90;;;;;;4998294;28;20026;-74
2023/02/09 11:06:01;;;;;;;24.40;12.13;;;6.00;99.90;;;;;;4996161;28;20032;-73
2023/02/09 11:08:44;;;;;;;25.15;12.90;;;6.10;99.90;;;;;;5011016;28;20032;-76
2023/02/09 11:11:36;;;;;;;32.30;13.32;;;6.20;99.90;;;;;;4996059;28;20046;-75
2023/02/09 11:14:03;;;;;;;29.67;12.43;;;6.20;99.90;;;;;;4994149;28;20118;-75
2023/02/09 11:16:37;;;;;;;22.05;10.60;;;6.30;99.90;;;;;;4996297;28;20625;-73
2023/02/09 11:19:13;;;;;;;29.75;12.85;;;6.30;99.90;;;;;;4993566;28;20035;-72
2023/02/09 11:21:50;;;;;;;31.77;13.30;;;6.40;99.90;;;;;;4996935;28;20093;-72
2023/02/09 11:24:25;;;;;;;28.70;13.02;;;6.40;99.90;;;;;;4994562;28;20038;-73
2023/02/09 11:26:57;;;;;;;27.50;11.90;;;6.40;99.90;;;;;;4999350;28;20037;-71
2023/02/09 11:29:39;;;;;;;23.58;10.82;;;6.50;99.90;;;;;;5000971;28;20033;-73
2023/02/09 11:32:08;;;;;;;27.65;12.57;;;6.50;99.90;;;;;;5002227;28;20042;-73
2023/02/09 11:34:59;;;;;;;26.35;12.02;;;6.60;99.90;;;;;;5000838;28;20027;-74
2023/02/09 11:37:43;;;;;;;31.08;13.30;;;6.60;99.90;;;;;;4994802;28;20028;-73
2023/02/09 11:40:35;;;;;;;27.98;12.95;;;6.80;99.90;;;;;;5003258;28;20038;-73
2023/02/09 11:43:16;;;;;;;25.55;12.20;;;6.80;99.90;;;;;;5004408;28;20058;-72
2023/02/09 11:45:48;;;;;;;31.65;13.32;;;6.80;99.90;;;;;;5001670;28;20034;-73
2023/02/09 11:48:30;;;;;;;29.92;13.48;;;6.90;99.90;;;;;;4999259;28;20034;-74
2023/02/09 11:51:33;;;;;;;27.08;12.38;;;6.90;99.90;;;;;;4995701;28;20039;-74
2023/02/09 11:54:06;;;;;;;29.10;13.30;;;6.90;99.90;;;;;;4990803;28;20038;-72
2023/02/09 11:56:37;;;;;;;23.58;11.82;;;6.90;99.90;;;;;;4997345;28;21051;-72
2023/02/09 11:59:14;;;;;;;30.70;12.30;;;7.00;99.90;;;;;;4997086;28;20046;-72
2023/02/09 12:01:59;;;;;;;26.58;12.65;;;7.00;99.90;;;;;;4997451;28;20042;-71
2023/02/09 12:04:27;;;;;;;29.85;13.05;;;6.80;99.90;;;;;;5016084;28;20034;-71
2023/02/09 12:07:01;;;;;;;33.58;13.52;;;6.70;99.90;;;;;;4997737;28;20051;-73
2023/02/09 12:09:44;;;;;;;28.00;12.73;;;6.90;99.90;;;;;;4996916;28;20506;-73
2023/02/09 12:12:36;;;;;;;31.05;13.25;;;7.20;99.90;;;;;;5000503;28;20129;-72
2023/02/09 12:15:15;;;;;;;28.90;12.80;;;7.30;99.90;;;;;;4994373;28;20053;-72
2023/02/09 12:17:43;;;;;;;30.08;13.27;;;7.20;99.90;;;;;;4992351;28;20030;-73
2023/02/09 12:20:36;;;;;;;29.35;13.43;;;7.00;99.90;;;;;;4997626;28;20057;-70
2023/02/09 12:23:36;;;;;;;32.65;13.27;;;6.70;99.90;;;;;;4996026;28;20023;-72
2023/02/09 12:26:10;;;;;;;28.33;13.02;;;6.50;99.90;;;;;;4996592;28;20071;-73
2023/02/09 12:29:15;;;;;;;33.17;14.60;;;6.20;99.90;;;;;;4994966;28;20031;-71
2023/02/09 12:32:03;;;;;;;28.63;13.52;;;6.10;99.90;;;;;;4995234;28;20097;-72
2023/02/09 12:34:40;;;;;;;32.70;12.38;;;6.00;99.90;;;;;;4996854;28;20038;-72
2023/02/09 12:37:12;;;;;;;25.42;12.77;;;5.90;99.90;;;;;;4997195;28;20035;-72
2023/02/09 12:39:57;;;;;;;34.13;14.05;;;5.80;99.90;;;;;;4993260;28;20113;-70
2023/02/09 12:42:26;;;;;;;32.67;13.95;;;5.60;99.90;;;;;;4996626;28;20022;-71
2023/02/09 12:44:57;;;;;;;29.08;13.77;;;5.60;99.90;;;;;;4996082;28;20332;-72
2023/02/09 12:47:55;;;;;;;29.35;12.98;;;5.50;99.90;;;;;;4996767;28;20101;-71
2023/02/09 12:50:29;;;;;;;30.40;14.35;;;5.50;99.90;;;;;;5012628;28;20026;-70
2023/02/09 12:53:23;;;;;;;32.38;11.98;;;5.40;99.90;;;;;;5001147;28;20034;-73
2023/02/09 12:56:03;;;;;;;28.88;12.88;;;5.40;99.90;;;;;;5016539;28;20038;-72
2023/02/09 12:58:36;;;;;;;29.65;14.57;;;5.30;99.90;;;;;;4998005;28;20054;-74